sensor_id;sensor_type;location;lat;lon;timestamp;P1;durP1;ratioP1;P2;durP2;ratioP2
31660;SDS011;18267;52.234;7.444;2023-04-25T00:00:20;9.77;;;2.00;;
31660;SDS011;18267;52.234;7.444;2023-04-25T00:02:46;2.60;;;1.63;;
31660;SDS011;18267;52.234;7.444;2023-04-25T00:05:11;11.18;;;2.03;;
31660;SDS011;18267;52.234;7.444;2023-04-25T00:07:39;3.65;;;1.70;;
31660;SDS011;18267;52.234;7.444;2023-04-25T00:10:07;4.50;;;1.90;;
31660;SDS011;18267;52.234;7.444;2023-04-25T00:12:33;6.32;;;1.67;;
31660;SDS011;18267;52.234;7.444;2023-04-25T00:15:00;2.78;;;1.40;;
31660;SDS011;18267;52.234;7.444;2023-04-25T00:17:25;2.92;;;1.48;;
31660;SDS011;18267;52.234;7.444;2023-04-25T00:19:51;9.10;;;2.03;;
31660;SDS011;18267;52.234;7.444;2023-04-25T00:22:17;5.97;;;1.50;;
31660;SDS011;18267;52.234;7.444;2023-04-25T00:24:43;8.57;;;1.77;;
31660;SDS011;18267;52.234;7.444;2023-04-25T00:27:10;4.03;;;1.98;;
31660;SDS011;18267;52.234;7.444;2023-04-25T00:29:36;7.18;;;1.65;;
31660;SDS011;18267;52.234;7.444;2023-04-25T00:32:01;6.47;;;1.92;;
31660;SDS011;18267;52.234;7.444;2023-04-25T00:34:27;5.97;;;1.52;;
31660;SDS011;18267;52.234;7.444;2023-04-25T00:36:52;7.82;;;1.98;;
31660;SDS011;18267;52.234;7.444;2023-04-25T00:39:18;13.38;;;2.13;;
31660;SDS011;18267;52.234;7.444;2023-04-25T00:41:44;8.13;;;2.38;;
31660;SDS011;18267;52.234;7.444;2023-04-25T00:44:11;6.43;;;1.95;;
31660;SDS011;18267;52.234;7.444;2023-04-25T00:46:37;10.85;;;1.85;;
31660;SDS011;18267;52.234;7.444;2023-04-25T00:49:03;9.90;;;2.15;;
31660;SDS011;18267;52.234;7.444;2023-04-25T00:51:29;9.90;;;2.13;;
31660;SDS011;18267;52.234;7.444;2023-04-25T00:53:59;17.25;;;3.58;;
31660;SDS011;18267;52.234;7.444;2023-04-25T00:56:26;14.68;;;2.55;;
31660;SDS011;18267;52.234;7.444;2023-04-25T00:58:53;13.52;;;1.90;;
31660;SDS011;18267;52.234;7.444;2023-04-25T01:01:21;21.38;;;2.90;;
31660;SDS011;18267;52.234;7.444;2023-04-25T01:03:47;13.05;;;2.53;;
31660;SDS011;18267;52.234;7.444;2023-04-25T01:06:14;15.32;;;2.72;;
31660;SDS011;18267;52.234;7.444;2023-04-25T01:08:42;17.70;;;2.72;;
31660;SDS011;18267;52.234;7.444;2023-04-25T01:11:07;20.05;;;3.30;;
31660;SDS011;18267;52.234;7.444;2023-04-25T01:13:34;23.10;;;3.50;;
31660;SDS011;18267;52.234;7.444;2023-04-25T01:16:00;11.50;;;1.90;;
31660;SDS011;18267;52.234;7.444;2023-04-25T01:18:27;16.20;;;3.00;;
31660;SDS011;18267;52.234;7.444;2023-04-25T01:20:53;17.48;;;2.45;;
31660;SDS011;18267;52.234;7.444;2023-04-25T01:23:20;17.85;;;2.70;;
31660;SDS011;18267;52.234;7.444;2023-04-25T01:25:46;12.80;;;2.45;;
31660;SDS011;18267;52.234;7.444;2023-04-25T01:28:15;12.77;;;2.13;;
31660;SDS011;18267;52.234;7.444;2023-04-25T01:30:42;16.20;;;2.35;;
31660;SDS011;18267;52.234;7.444;2023-04-25T01:33:08;7.80;;;2.33;;
31660;SDS011;18267;52.234;7.444;2023-04-25T01:35:34;12.98;;;2.58;;
31660;SDS011;18267;52.234;7.444;2023-04-25T01:37:59;21.85;;;3.08;;
31660;SDS011;18267;52.234;7.444;2023-04-25T01:40:25;17.63;;;2.97;;
31660;SDS011;18267;52.234;7.444;2023-04-25T01:42:52;16.88;;;2.53;;
31660;SDS011;18267;52.234;7.444;2023-04-25T01:45:17;16.55;;;3.60;;
31660;SDS011;18267;52.234;7.444;2023-04-25T01:47:43;12.75;;;2.50;;
31660;SDS011;18267;52.234;7.444;2023-04-25T01:50:13;31.73;;;3.00;;
31660;SDS011;18267;52.234;7.444;2023-04-25T01:52:40;15.10;;;2.55;;
31660;SDS011;18267;52.234;7.444;2023-04-25T01:55:05;15.43;;;3.50;;
31660;SDS011;18267;52.234;7.444;2023-04-25T01:57:31;12.95;;;2.25;;
31660;SDS011;18267;52.234;7.444;2023-04-25T01:59:59;11.45;;;2.70;;
31660;SDS011;18267;52.234;7.444;2023-04-25T02:02:26;19.02;;;2.35;;
31660;SDS011;18267;52.234;7.444;2023-04-25T02:04:52;14.77;;;2.53;;
31660;SDS011;18267;52.234;7.444;2023-04-25T02:07:17;9.60;;;2.47;;
31660;SDS011;18267;52.234;7.444;2023-04-25T02:09:43;8.25;;;1.83;;
31660;SDS011;18267;52.234;7.444;2023-04-25T02:12:09;7.70;;;2.25;;
31660;SDS011;18267;52.234;7.444;2023-04-25T02:14:35;14.07;;;2.55;;
31660;SDS011;18267;52.234;7.444;2023-04-25T02:17:01;13.60;;;2.17;;
31660;SDS011;18267;52.234;7.444;2023-04-25T02:19:26;13.07;;;2.53;;
31660;SDS011;18267;52.234;7.444;2023-04-25T02:21:52;16.33;;;2.67;;
31660;SDS011;18267;52.234;7.444;2023-04-25T02:24:17;17.83;;;2.67;;
31660;SDS011;18267;52.234;7.444;2023-04-25T02:26:43;19.45;;;2.70;;
31660;SDS011;18267;52.234;7.444;2023-04-25T02:29:09;8.25;;;2.15;;
31660;SDS011;18267;52.234;7.444;2023-04-25T02:31:35;15.70;;;1.88;;
31660;SDS011;18267;52.234;7.444;2023-04-25T02:34:00;16.10;;;2.72;;
31660;SDS011;18267;52.234;7.444;2023-04-25T02:36:27;9.20;;;2.20;;
31660;SDS011;18267;52.234;7.444;2023-04-25T02:38:54;18.15;;;2.13;;
31660;SDS011;18267;52.234;7.444;2023-04-25T02:41:20;19.42;;;2.85;;
31660;SDS011;18267;52.234;7.444;2023-04-25T02:43:45;16.05;;;2.15;;
31660;SDS011;18267;52.234;7.444;2023-04-25T02:46:11;17.33;;;2.50;;
31660;SDS011;18267;52.234;7.444;2023-04-25T02:48:36;17.65;;;2.90;;
31660;SDS011;18267;52.234;7.444;2023-04-25T02:51:02;11.55;;;3.50;;
31660;SDS011;18267;52.234;7.444;2023-04-25T02:53:27;14.65;;;1.83;;
31660;SDS011;18267;52.234;7.444;2023-04-25T02:55:53;18.35;;;2.15;;
31660;SDS011;18267;52.234;7.444;2023-04-25T02:58:19;16.38;;;2.60;;
31660;SDS011;18267;52.234;7.444;2023-04-25T03:00:45;15.48;;;2.85;;
31660;SDS011;18267;52.234;7.444;2023-04-25T03:03:12;9.82;;;2.22;;
31660;SDS011;18267;52.234;7.444;2023-04-25T03:05:38;10.13;;;1.90;;
31660;SDS011;18267;52.234;7.444;2023-04-25T03:08:03;22.20;;;2.75;;
31660;SDS011;18267;52.234;7.444;2023-04-25T03:10:29;14.05;;;1.95;;
31660;SDS011;18267;52.234;7.444;2023-04-25T03:12:54;12.43;;;2.35;;
31660;SDS011;18267;52.234;7.444;2023-04-25T03:15:20;18.63;;;2.85;;
31660;SDS011;18267;52.234;7.444;2023-04-25T03:17:46;16.23;;;3.42;;
31660;SDS011;18267;52.234;7.444;2023-04-25T03:20:11;10.43;;;2.47;;
31660;SDS011;18267;52.234;7.444;2023-04-25T03:22:37;13.15;;;2.42;;
31660;SDS011;18267;52.234;7.444;2023-04-25T03:25:02;11.05;;;1.77;;
31660;SDS011;18267;52.234;7.444;2023-04-25T03:27:28;17.75;;;2.78;;
31660;SDS011;18267;52.234;7.444;2023-04-25T03:29:54;14.32;;;2.53;;
31660;SDS011;18267;52.234;7.444;2023-04-25T03:32:20;18.65;;;3.58;;
31660;SDS011;18267;52.234;7.444;2023-04-25T03:34:45;21.52;;;2.50;;
31660;SDS011;18267;52.234;7.444;2023-04-25T03:37:11;12.30;;;2.00;;
31660;SDS011;18267;52.234;7.444;2023-04-25T03:39:36;15.27;;;2.40;;
31660;SDS011;18267;52.234;7.444;2023-04-25T03:42:03;14.60;;;3.08;;
31660;SDS011;18267;52.234;7.444;2023-04-25T03:44:29;15.82;;;2.42;;
31660;SDS011;18267;52.234;7.444;2023-04-25T03:46:56;14.30;;;3.15;;
31660;SDS011;18267;52.234;7.444;2023-04-25T03:49:22;14.32;;;2.80;;
31660;SDS011;18267;52.234;7.444;2023-04-25T03:51:47;11.82;;;2.45;;
31660;SDS011;18267;52.234;7.444;2023-04-25T03:54:13;20.40;;;2.55;;
31660;SDS011;18267;52.234;7.444;2023-04-25T03:56:38;11.40;;;2.30;;
31660;SDS011;18267;52.234;7.444;2023-04-25T03:59:05;15.07;;;2.17;;
31660;SDS011;18267;52.234;7.444;2023-04-25T04:01:31;7.90;;;2.25;;
31660;SDS011;18267;52.234;7.444;2023-04-25T04:03:56;7.90;;;2.03;;
31660;SDS011;18267;52.234;7.444;2023-04-25T04:06:22;19.63;;;2.65;;
31660;SDS011;18267;52.234;7.444;2023-04-25T04:08:47;11.77;;;1.80;;
31660;SDS011;18267;52.234;7.444;2023-04-25T04:11:13;15.23;;;2.30;;
31660;SDS011;18267;52.234;7.444;2023-04-25T04:13:38;11.60;;;2.47;;
31660;SDS011;18267;52.234;7.444;2023-04-25T04:16:04;14.45;;;2.28;;
31660;SDS011;18267;52.234;7.444;2023-04-25T04:18:30;11.68;;;1.63;;
31660;SDS011;18267;52.234;7.444;2023-04-25T04:20:55;15.13;;;3.05;;
31660;SDS011;18267;52.234;7.444;2023-04-25T04:23:23;12.23;;;2.28;;
31660;SDS011;18267;52.234;7.444;2023-04-25T04:25:48;13.25;;;2.40;;
31660;SDS011;18267;52.234;7.444;2023-04-25T04:28:14;7.93;;;2.10;;
31660;SDS011;18267;52.234;7.444;2023-04-25T04:30:41;20.80;;;2.72;;
31660;SDS011;18267;52.234;7.444;2023-04-25T04:33:07;11.95;;;2.50;;
31660;SDS011;18267;52.234;7.444;2023-04-25T04:35:34;15.85;;;2.00;;
31660;SDS011;18267;52.234;7.444;2023-04-25T04:38:00;13.77;;;1.90;;
31660;SDS011;18267;52.234;7.444;2023-04-25T04:40:25;11.15;;;2.42;;
31660;SDS011;18267;52.234;7.444;2023-04-25T04:42:51;10.88;;;2.17;;
31660;SDS011;18267;52.234;7.444;2023-04-25T04:45:18;19.02;;;2.58;;
31660;SDS011;18267;52.234;7.444;2023-04-25T04:47:44;13.35;;;1.92;;
31660;SDS011;18267;52.234;7.444;2023-04-25T04:50:10;15.13;;;2.28;;
31660;SDS011;18267;52.234;7.444;2023-04-25T04:52:36;8.82;;;2.05;;
31660;SDS011;18267;52.234;7.444;2023-04-25T04:55:02;5.53;;;1.70;;
31660;SDS011;18267;52.234;7.444;2023-04-25T04:57:29;10.70;;;1.77;;
31660;SDS011;18267;52.234;7.444;2023-04-25T04:59:55;9.35;;;1.85;;
31660;SDS011;18267;52.234;7.444;2023-04-25T05:02:21;9.73;;;2.17;;
31660;SDS011;18267;52.234;7.444;2023-04-25T05:04:47;13.13;;;1.80;;
31660;SDS011;18267;52.234;7.444;2023-04-25T05:07:13;9.25;;;2.25;;
31660;SDS011;18267;52.234;7.444;2023-04-25T05:09:39;15.68;;;2.03;;
31660;SDS011;18267;52.234;7.444;2023-04-25T05:12:05;13.52;;;2.05;;
31660;SDS011;18267;52.234;7.444;2023-04-25T05:14:30;13.35;;;2.13;;
31660;SDS011;18267;52.234;7.444;2023-04-25T05:16:56;12.10;;;1.73;;
31660;SDS011;18267;52.234;7.444;2023-04-25T05:19:29;8.48;;;1.10;;
31660;SDS011;18267;52.234;7.444;2023-04-25T05:21:54;20.08;;;2.45;;
31660;SDS011;18267;52.234;7.444;2023-04-25T05:24:20;8.05;;;1.85;;
31660;SDS011;18267;52.234;7.444;2023-04-25T05:26:45;10.80;;;1.63;;
31660;SDS011;18267;52.234;7.444;2023-04-25T05:29:11;10.20;;;1.52;;
31660;SDS011;18267;52.234;7.444;2023-04-25T05:31:36;11.45;;;1.75;;
31660;SDS011;18267;52.234;7.444;2023-04-25T05:34:02;9.38;;;1.80;;
31660;SDS011;18267;52.234;7.444;2023-04-25T05:36:28;13.05;;;1.52;;
31660;SDS011;18267;52.234;7.444;2023-04-25T05:38:55;8.52;;;1.42;;
31660;SDS011;18267;52.234;7.444;2023-04-25T05:41:21;13.50;;;1.63;;
31660;SDS011;18267;52.234;7.444;2023-04-25T05:43:46;12.68;;;1.63;;
31660;SDS011;18267;52.234;7.444;2023-04-25T05:46:14;8.23;;;1.85;;
31660;SDS011;18267;52.234;7.444;2023-04-25T05:48:41;9.32;;;1.77;;
31660;SDS011;18267;52.234;7.444;2023-04-25T05:51:08;8.55;;;1.63;;
31660;SDS011;18267;52.234;7.444;2023-04-25T05:53:33;10.48;;;2.22;;
31660;SDS011;18267;52.234;7.444;2023-04-25T05:55:59;8.93;;;1.40;;
31660;SDS011;18267;52.234;7.444;2023-04-25T05:58:24;8.85;;;1.52;;
31660;SDS011;18267;52.234;7.444;2023-04-25T06:00:50;10.73;;;1.70;;
31660;SDS011;18267;52.234;7.444;2023-04-25T06:03:16;10.15;;;1.23;;
31660;SDS011;18267;52.234;7.444;2023-04-25T06:05:42;7.82;;;1.52;;
31660;SDS011;18267;52.234;7.444;2023-04-25T06:08:08;12.35;;;1.38;;
31660;SDS011;18267;52.234;7.444;2023-04-25T06:10:36;9.10;;;1.50;;
31660;SDS011;18267;52.234;7.444;2023-04-25T06:13:02;4.78;;;1.35;;
31660;SDS011;18267;52.234;7.444;2023-04-25T06:15:28;14.95;;;1.60;;
31660;SDS011;18267;52.234;7.444;2023-04-25T06:17:54;6.10;;;1.35;;
31660;SDS011;18267;52.234;7.444;2023-04-25T06:20:20;5.10;;;1.35;;
31660;SDS011;18267;52.234;7.444;2023-04-25T06:22:48;11.63;;;1.35;;
31660;SDS011;18267;52.234;7.444;2023-04-25T06:25:15;8.38;;;1.83;;
31660;SDS011;18267;52.234;7.444;2023-04-25T06:27:41;5.55;;;1.05;;
31660;SDS011;18267;52.234;7.444;2023-04-25T06:30:06;9.02;;;1.23;;
31660;SDS011;18267;52.234;7.444;2023-04-25T06:32:33;10.63;;;1.52;;
31660;SDS011;18267;52.234;7.444;2023-04-25T06:34:59;9.38;;;1.48;;
31660;SDS011;18267;52.234;7.444;2023-04-25T06:37:26;7.30;;;1.02;;
31660;SDS011;18267;52.234;7.444;2023-04-25T06:39:52;5.35;;;1.40;;
31660;SDS011;18267;52.234;7.444;2023-04-25T06:42:18;6.13;;;0.90;;
31660;SDS011;18267;52.234;7.444;2023-04-25T06:44:43;4.93;;;1.10;;
31660;SDS011;18267;52.234;7.444;2023-04-25T06:47:09;9.05;;;1.27;;
31660;SDS011;18267;52.234;7.444;2023-04-25T06:49:35;7.13;;;1.38;;
31660;SDS011;18267;52.234;7.444;2023-04-25T06:52:00;9.57;;;1.73;;
31660;SDS011;18267;52.234;7.444;2023-04-25T06:54:27;5.43;;;0.95;;
31660;SDS011;18267;52.234;7.444;2023-04-25T06:56:54;9.27;;;1.67;;
31660;SDS011;18267;52.234;7.444;2023-04-25T06:59:21;2.83;;;0.75;;
31660;SDS011;18267;52.234;7.444;2023-04-25T07:01:46;9.30;;;1.00;;
31660;SDS011;18267;52.234;7.444;2023-04-25T07:04:12;13.40;;;0.90;;
31660;SDS011;18267;52.234;7.444;2023-04-25T07:06:38;8.25;;;1.30;;
31660;SDS011;18267;52.234;7.444;2023-04-25T07:09:08;5.43;;;0.95;;
31660;SDS011;18267;52.234;7.444;2023-04-25T07:11:37;13.98;;;1.27;;
31660;SDS011;18267;52.234;7.444;2023-04-25T07:14:03;9.63;;;1.35;;
31660;SDS011;18267;52.234;7.444;2023-04-25T07:16:29;7.28;;;1.08;;
31660;SDS011;18267;52.234;7.444;2023-04-25T07:18:55;9.20;;;1.10;;
31660;SDS011;18267;52.234;7.444;2023-04-25T07:21:20;9.32;;;1.67;;
31660;SDS011;18267;52.234;7.444;2023-04-25T07:23:46;11.48;;;1.20;;
31660;SDS011;18267;52.234;7.444;2023-04-25T07:26:13;13.77;;;1.30;;
31660;SDS011;18267;52.234;7.444;2023-04-25T07:28:38;11.70;;;1.77;;
31660;SDS011;18267;52.234;7.444;2023-04-25T07:31:05;14.07;;;1.40;;
31660;SDS011;18267;52.234;7.444;2023-04-25T07:33:30;12.00;;;1.55;;
31660;SDS011;18267;52.234;7.444;2023-04-25T07:35:56;14.75;;;1.50;;
31660;SDS011;18267;52.234;7.444;2023-04-25T07:38:22;10.27;;;1.67;;
31660;SDS011;18267;52.234;7.444;2023-04-25T07:40:48;5.90;;;1.77;;
31660;SDS011;18267;52.234;7.444;2023-04-25T07:43:14;14.13;;;1.58;;
31660;SDS011;18267;52.234;7.444;2023-04-25T07:45:41;5.28;;;0.90;;
31660;SDS011;18267;52.234;7.444;2023-04-25T07:48:08;11.82;;;1.40;;
31660;SDS011;18267;52.234;7.444;2023-04-25T07:50:33;8.20;;;1.38;;
31660;SDS011;18267;52.234;7.444;2023-04-25T07:52:59;14.05;;;1.92;;
31660;SDS011;18267;52.234;7.444;2023-04-25T07:55:25;10.75;;;1.10;;
31660;SDS011;18267;52.234;7.444;2023-04-25T07:57:51;10.82;;;1.25;;
31660;SDS011;18267;52.234;7.444;2023-04-25T08:00:16;4.57;;;1.10;;
31660;SDS011;18267;52.234;7.444;2023-04-25T08:02:42;13.55;;;1.67;;
31660;SDS011;18267;52.234;7.444;2023-04-25T08:05:08;11.10;;;1.20;;
31660;SDS011;18267;52.234;7.444;2023-04-25T08:07:36;12.95;;;1.25;;
31660;SDS011;18267;52.234;7.444;2023-04-25T08:10:03;10.88;;;1.17;;
31660;SDS011;18267;52.234;7.444;2023-04-25T08:12:30;10.90;;;1.20;;
31660;SDS011;18267;52.234;7.444;2023-04-25T08:14:56;11.98;;;1.10;;
31660;SDS011;18267;52.234;7.444;2023-04-25T08:17:22;7.85;;;1.35;;
31660;SDS011;18267;52.234;7.444;2023-04-25T08:19:48;6.15;;;1.00;;
31660;SDS011;18267;52.234;7.444;2023-04-25T08:22:14;2.30;;;0.55;;
31660;SDS011;18267;52.234;7.444;2023-04-25T08:24:40;6.90;;;1.05;;
31660;SDS011;18267;52.234;7.444;2023-04-25T08:27:06;8.82;;;1.05;;
31660;SDS011;18267;52.234;7.444;2023-04-25T08:29:32;6.85;;;1.50;;
31660;SDS011;18267;52.234;7.444;2023-04-25T08:32:01;7.80;;;1.15;;
31660;SDS011;18267;52.234;7.444;2023-04-25T08:34:27;8.00;;;1.20;;
31660;SDS011;18267;52.234;7.444;2023-04-25T08:36:54;7.05;;;0.98;;
31660;SDS011;18267;52.234;7.444;2023-04-25T08:39:20;9.75;;;1.27;;
31660;SDS011;18267;52.234;7.444;2023-04-25T08:41:46;6.60;;;1.25;;
31660;SDS011;18267;52.234;7.444;2023-04-25T08:44:12;8.95;;;1.20;;
31660;SDS011;18267;52.234;7.444;2023-04-25T08:46:39;7.82;;;1.13;;
31660;SDS011;18267;52.234;7.444;2023-04-25T08:49:06;6.07;;;1.35;;
31660;SDS011;18267;52.234;7.444;2023-04-25T08:51:34;7.75;;;1.10;;
31660;SDS011;18267;52.234;7.444;2023-04-25T08:54:08;8.80;;;1.00;;
31660;SDS011;18267;52.234;7.444;2023-04-25T08:56:35;6.65;;;0.47;;
31660;SDS011;18267;52.234;7.444;2023-04-25T08:59:02;6.57;;;1.05;;
31660;SDS011;18267;52.234;7.444;2023-04-25T09:01:28;6.03;;;0.95;;
31660;SDS011;18267;52.234;7.444;2023-04-25T09:03:55;3.63;;;0.88;;
31660;SDS011;18267;52.234;7.444;2023-04-25T09:06:22;2.05;;;0.70;;
31660;SDS011;18267;52.234;7.444;2023-04-25T09:08:49;10.23;;;1.25;;
31660;SDS011;18267;52.234;7.444;2023-04-25T09:11:15;4.13;;;1.05;;
31660;SDS011;18267;52.234;7.444;2023-04-25T09:13:41;6.65;;;0.60;;
31660;SDS011;18267;52.234;7.444;2023-04-25T09:16:06;4.05;;;0.80;;
31660;SDS011;18267;52.234;7.444;2023-04-25T09:18:33;3.75;;;0.63;;
31660;SDS011;18267;52.234;7.444;2023-04-25T09:21:06;5.15;;;1.63;;
31660;SDS011;18267;52.234;7.444;2023-04-25T09:23:40;4.18;;;0.70;;
31660;SDS011;18267;52.234;7.444;2023-04-25T09:26:10;7.35;;;1.02;;
31660;SDS011;18267;52.234;7.444;2023-04-25T09:28:41;3.38;;;0.60;;
31660;SDS011;18267;52.234;7.444;2023-04-25T09:31:09;6.90;;;0.90;;
31660;SDS011;18267;52.234;7.444;2023-04-25T09:33:36;5.57;;;0.70;;
31660;SDS011;18267;52.234;7.444;2023-04-25T09:36:03;4.20;;;0.65;;
31660;SDS011;18267;52.234;7.444;2023-04-25T09:38:45;6.22;;;0.75;;
31660;SDS011;18267;52.234;7.444;2023-04-25T09:41:11;8.75;;;0.85;;
31660;SDS011;18267;52.234;7.444;2023-04-25T09:43:37;6.57;;;0.60;;
31660;SDS011;18267;52.234;7.444;2023-04-25T09:46:11;5.53;;;0.90;;
31660;SDS011;18267;52.234;7.444;2023-04-25T09:48:36;2.60;;;0.80;;
31660;SDS011;18267;52.234;7.444;2023-04-25T09:53:28;3.50;;;0.65;;
31660;SDS011;18267;52.234;7.444;2023-04-25T09:55:53;1.98;;;0.68;;
31660;SDS011;18267;52.234;7.444;2023-04-25T09:58:21;4.30;;;0.80;;
31660;SDS011;18267;52.234;7.444;2023-04-25T10:00:49;12.90;;;0.70;;
31660;SDS011;18267;52.234;7.444;2023-04-25T10:03:17;2.90;;;0.43;;
31660;SDS011;18267;52.234;7.444;2023-04-25T10:05:44;4.95;;;0.80;;
31660;SDS011;18267;52.234;7.444;2023-04-25T10:08:14;2.88;;;0.60;;
31660;SDS011;18267;52.234;7.444;2023-04-25T10:10:41;5.45;;;0.65;;
31660;SDS011;18267;52.234;7.444;2023-04-25T10:13:08;7.63;;;1.23;;
31660;SDS011;18267;52.234;7.444;2023-04-25T10:15:34;1.73;;;0.40;;
31660;SDS011;18267;52.234;7.444;2023-04-25T10:18:01;5.47;;;0.52;;
31660;SDS011;18267;52.234;7.444;2023-04-25T10:20:27;5.47;;;0.77;;
31660;SDS011;18267;52.234;7.444;2023-04-25T10:22:54;4.18;;;0.32;;
31660;SDS011;18267;52.234;7.444;2023-04-25T10:25:27;2.97;;;0.20;;
31660;SDS011;18267;52.234;7.444;2023-04-25T10:27:53;1.63;;;0.70;;
31660;SDS011;18267;52.234;7.444;2023-04-25T10:30:18;2.08;;;0.35;;
31660;SDS011;18267;52.234;7.444;2023-04-25T10:32:44;4.15;;;0.57;;
31660;SDS011;18267;52.234;7.444;2023-04-25T10:35:18;5.85;;;0.63;;
31660;SDS011;18267;52.234;7.444;2023-04-25T10:40:40;1.95;;;0.63;;
31660;SDS011;18267;52.234;7.444;2023-04-25T10:45:56;2.50;;;0.40;;
31660;SDS011;18267;52.234;7.444;2023-04-25T10:48:29;3.95;;;0.50;;
31660;SDS011;18267;52.234;7.444;2023-04-25T10:51:08;2.88;;;0.50;;
31660;SDS011;18267;52.234;7.444;2023-04-25T10:53:35;5.00;;;0.40;;
31660;SDS011;18267;52.234;7.444;2023-04-25T10:56:11;0.80;;;0.47;;
31660;SDS011;18267;52.234;7.444;2023-04-25T10:58:52;0.65;;;0.30;;
31660;SDS011;18267;52.234;7.444;2023-04-25T11:01:29;0.52;;;0.30;;
31660;SDS011;18267;52.234;7.444;2023-04-25T11:04:03;5.18;;;0.25;;
31660;SDS011;18267;52.234;7.444;2023-04-25T11:06:32;5.07;;;0.35;;
31660;SDS011;18267;52.234;7.444;2023-04-25T11:09:09;5.45;;;0.60;;
31660;SDS011;18267;52.234;7.444;2023-04-25T11:11:38;2.40;;;0.45;;
31660;SDS011;18267;52.234;7.444;2023-04-25T11:14:04;3.15;;;0.98;;
31660;SDS011;18267;52.234;7.444;2023-04-25T11:16:29;4.28;;;0.40;;
31660;SDS011;18267;52.234;7.444;2023-04-25T11:18:57;1.40;;;0.20;;
31660;SDS011;18267;52.234;7.444;2023-04-25T11:21:23;4.03;;;0.50;;
31660;SDS011;18267;52.234;7.444;2023-04-25T11:23:51;2.13;;;0.60;;
31660;SDS011;18267;52.234;7.444;2023-04-25T11:26:18;6.20;;;0.50;;
31660;SDS011;18267;52.234;7.444;2023-04-25T11:28:45;2.67;;;1.20;;
31660;SDS011;18267;52.234;7.444;2023-04-25T11:31:11;3.33;;;0.60;;
31660;SDS011;18267;52.234;7.444;2023-04-25T11:33:37;4.93;;;0.50;;
31660;SDS011;18267;52.234;7.444;2023-04-25T11:36:03;3.55;;;0.32;;
31660;SDS011;18267;52.234;7.444;2023-04-25T11:38:29;2.05;;;0.60;;
31660;SDS011;18267;52.234;7.444;2023-04-25T11:40:54;1.90;;;0.73;;
31660;SDS011;18267;52.234;7.444;2023-04-25T11:43:21;2.20;;;0.77;;
31660;SDS011;18267;52.234;7.444;2023-04-25T11:45:50;5.40;;;0.45;;
31660;SDS011;18267;52.234;7.444;2023-04-25T11:48:17;3.70;;;0.80;;
31660;SDS011;18267;52.234;7.444;2023-04-25T11:50:43;2.90;;;0.65;;
31660;SDS011;18267;52.234;7.444;2023-04-25T11:53:09;3.08;;;0.60;;
31660;SDS011;18267;52.234;7.444;2023-04-25T11:55:35;3.08;;;0.75;;
31660;SDS011;18267;52.234;7.444;2023-04-25T11:58:01;4.55;;;0.60;;
31660;SDS011;18267;52.234;7.444;2023-04-25T12:00:28;3.13;;;0.45;;
31660;SDS011;18267;52.234;7.444;2023-04-25T12:02:55;2.08;;;0.43;;
31660;SDS011;18267;52.234;7.444;2023-04-25T12:05:26;5.97;;;0.68;;
31660;SDS011;18267;52.234;7.444;2023-04-25T12:07:54;4.45;;;1.10;;
31660;SDS011;18267;52.234;7.444;2023-04-25T12:10:20;1.85;;;0.60;;
31660;SDS011;18267;52.234;7.444;2023-04-25T12:12:46;3.13;;;0.55;;
31660;SDS011;18267;52.234;7.444;2023-04-25T12:15:13;3.75;;;0.60;;
31660;SDS011;18267;52.234;7.444;2023-04-25T12:17:41;4.05;;;0.68;;
31660;SDS011;18267;52.234;7.444;2023-04-25T12:20:10;3.30;;;0.57;;
31660;SDS011;18267;52.234;7.444;2023-04-25T12:22:40;3.22;;;0.77;;
31660;SDS011;18267;52.234;7.444;2023-04-25T12:25:13;8.05;;;1.00;;
31660;SDS011;18267;52.234;7.444;2023-04-25T12:31:03;1.88;;;0.40;;
31660;SDS011;18267;52.234;7.444;2023-04-25T12:33:31;5.78;;;0.70;;
31660;SDS011;18267;52.234;7.444;2023-04-25T12:35:58;4.45;;;0.52;;
31660;SDS011;18267;52.234;7.444;2023-04-25T12:38:24;0.65;;;0.30;;
31660;SDS011;18267;52.234;7.444;2023-04-25T12:40:51;1.48;;;0.73;;
31660;SDS011;18267;52.234;7.444;2023-04-25T12:43:17;2.58;;;0.85;;
31660;SDS011;18267;52.234;7.444;2023-04-25T12:45:43;3.00;;;0.60;;
31660;SDS011;18267;52.234;7.444;2023-04-25T12:48:16;10.63;;;0.60;;
31660;SDS011;18267;52.234;7.444;2023-04-25T12:50:42;6.53;;;0.90;;
31660;SDS011;18267;52.234;7.444;2023-04-25T12:53:09;6.63;;;0.60;;
31660;SDS011;18267;52.234;7.444;2023-04-25T12:55:36;8.50;;;0.57;;
31660;SDS011;18267;52.234;7.444;2023-04-25T12:58:02;3.42;;;0.70;;
31660;SDS011;18267;52.234;7.444;2023-04-25T13:00:28;8.07;;;0.60;;
31660;SDS011;18267;52.234;7.444;2023-04-25T13:02:54;6.40;;;0.90;;
31660;SDS011;18267;52.234;7.444;2023-04-25T13:05:20;5.47;;;1.45;;
31660;SDS011;18267;52.234;7.444;2023-04-25T13:07:47;3.75;;;0.63;;
31660;SDS011;18267;52.234;7.444;2023-04-25T13:10:13;6.57;;;0.85;;
31660;SDS011;18267;52.234;7.444;2023-04-25T13:12:39;4.82;;;0.95;;
31660;SDS011;18267;52.234;7.444;2023-04-25T13:15:05;6.85;;;1.20;;
31660;SDS011;18267;52.234;7.444;2023-04-25T13:17:32;4.40;;;0.95;;
31660;SDS011;18267;52.234;7.444;2023-04-25T13:19:57;3.75;;;0.73;;
31660;SDS011;18267;52.234;7.444;2023-04-25T13:22:23;4.57;;;0.70;;
31660;SDS011;18267;52.234;7.444;2023-04-25T13:24:48;3.58;;;1.08;;
31660;SDS011;18267;52.234;7.444;2023-04-25T13:27:14;3.63;;;0.98;;
31660;SDS011;18267;52.234;7.444;2023-04-25T13:29:40;4.97;;;0.65;;
31660;SDS011;18267;52.234;7.444;2023-04-25T13:32:06;1.58;;;1.13;;
31660;SDS011;18267;52.234;7.444;2023-04-25T13:34:31;5.30;;;0.88;;
31660;SDS011;18267;52.234;7.444;2023-04-25T13:36:57;3.97;;;0.80;;
31660;SDS011;18267;52.234;7.444;2023-04-25T13:39:23;5.13;;;0.85;;
31660;SDS011;18267;52.234;7.444;2023-04-25T13:41:49;5.13;;;1.15;;
31660;SDS011;18267;52.234;7.444;2023-04-25T13:44:16;5.72;;;1.13;;
31660;SDS011;18267;52.234;7.444;2023-04-25T13:46:41;4.55;;;1.20;;
31660;SDS011;18267;52.234;7.444;2023-04-25T13:49:07;5.25;;;0.80;;
31660;SDS011;18267;52.234;7.444;2023-04-25T13:51:33;5.68;;;1.35;;
31660;SDS011;18267;52.234;7.444;2023-04-25T13:53:59;2.92;;;0.35;;
31660;SDS011;18267;52.234;7.444;2023-04-25T13:56:24;4.10;;;0.50;;
31660;SDS011;18267;52.234;7.444;2023-04-25T13:58:50;4.10;;;0.43;;
31660;SDS011;18267;52.234;7.444;2023-04-25T14:01:16;1.38;;;0.52;;
31660;SDS011;18267;52.234;7.444;2023-04-25T14:03:42;2.50;;;0.32;;
31660;SDS011;18267;52.234;7.444;2023-04-25T14:06:09;3.17;;;0.70;;
31660;SDS011;18267;52.234;7.444;2023-04-25T14:08:36;5.70;;;0.90;;
31660;SDS011;18267;52.234;7.444;2023-04-25T14:11:01;6.55;;;0.70;;
31660;SDS011;18267;52.234;7.444;2023-04-25T14:13:28;3.50;;;0.40;;
31660;SDS011;18267;52.234;7.444;2023-04-25T14:15:53;2.55;;;0.80;;
31660;SDS011;18267;52.234;7.444;2023-04-25T14:18:19;3.78;;;0.47;;
31660;SDS011;18267;52.234;7.444;2023-04-25T14:20:45;7.13;;;1.13;;
31660;SDS011;18267;52.234;7.444;2023-04-25T14:23:11;3.50;;;0.60;;
31660;SDS011;18267;52.234;7.444;2023-04-25T14:25:36;3.95;;;0.77;;
31660;SDS011;18267;52.234;7.444;2023-04-25T14:28:03;6.30;;;0.73;;
31660;SDS011;18267;52.234;7.444;2023-04-25T14:30:28;1.65;;;0.50;;
31660;SDS011;18267;52.234;7.444;2023-04-25T14:32:54;4.35;;;0.60;;
31660;SDS011;18267;52.234;7.444;2023-04-25T14:35:20;5.43;;;0.65;;
31660;SDS011;18267;52.234;7.444;2023-04-25T14:37:46;2.33;;;0.50;;
31660;SDS011;18267;52.234;7.444;2023-04-25T14:40:12;1.67;;;0.50;;
31660;SDS011;18267;52.234;7.444;2023-04-25T14:42:39;5.82;;;0.88;;
31660;SDS011;18267;52.234;7.444;2023-04-25T14:45:05;1.98;;;0.75;;
31660;SDS011;18267;52.234;7.444;2023-04-25T14:47:32;7.30;;;0.88;;
31660;SDS011;18267;52.234;7.444;2023-04-25T14:49:57;3.67;;;0.93;;